createdAt,value
2023-02-27T00:01:47.977Z,101968.91
2023-02-27T00:04:14.704Z,101970.94
2023-02-27T00:06:41.181Z,101964.78
2023-02-27T00:09:08.375Z,101970.63
2023-02-27T00:11:34.823Z,101967.16
2023-02-27T00:14:01.270Z,101971.81
2023-02-27T00:16:27.734Z,101973.00
2023-02-27T00:18:54.267Z,101974.94
2023-02-27T00:21:20.930Z,101973.22
2023-02-27T00:23:47.403Z,101973.22
2023-02-27T00:26:13.879Z,101964.34
2023-02-27T00:28:40.275Z,101971.69
2023-02-27T00:31:06.823Z,101970.81
2023-02-27T00:33:33.355Z,101970.19
2023-02-27T00:36:01.430Z,101963.03
2023-02-27T00:38:28.296Z,101972.13
2023-02-27T00:40:55.004Z,101975.88
2023-02-27T00:43:21.600Z,101973.19
2023-02-27T00:45:48.827Z,101971.47
2023-02-27T00:48:15.702Z,101969.75
2023-02-27T00:50:42.582Z,101971.47
2023-02-27T00:53:08.984Z,101977.84
2023-02-27T00:55:35.446Z,101985.94
2023-02-27T00:58:01.884Z,101982.47
2023-02-27T01:00:28.535Z,101978.16
2023-02-27T01:02:55.191Z,101979.03
2023-02-27T01:05:21.654Z,101990.91
2023-02-27T01:07:48.147Z,101984.94
2023-02-27T01:10:14.740Z,101978.81
2023-02-27T01:12:41.379Z,101977.28
2023-02-27T01:15:09.693Z,101973.81
2023-02-27T01:17:36.348Z,101979.41
2023-02-27T01:20:03.260Z,101979.63
2023-02-27T01:22:29.671Z,101981.78
2023-02-27T01:24:56.043Z,101983.72
2023-02-27T01:27:22.468Z,101989.13
2023-02-27T01:29:48.875Z,101991.03
2023-02-27T01:32:15.447Z,101982.19
2023-02-27T01:34:42.009Z,101982.41
2023-02-27T01:37:08.733Z,101983.47
2023-02-27T01:39:36.533Z,101983.78
2023-02-27T01:42:03.363Z,101983.00
2023-02-27T01:44:33.986Z,101981.28
2023-02-27T01:47:00.370Z,101981.50
2023-02-27T01:49:34.625Z,101978.91
2023-02-27T01:52:06.296Z,101980.84
2023-02-27T01:54:38.668Z,101978.34
2023-02-27T01:57:06.768Z,101977.59
2023-02-27T01:59:34.813Z,101978.56
2023-02-27T02:02:12.731Z,101980.38
2023-02-27T02:07:19.121Z,101979.63
2023-02-27T02:09:49.958Z,101971.72
2023-02-27T02:12:18.938Z,101978.94
2023-02-27T02:14:45.565Z,101980.03
2023-02-27T02:17:40.009Z,101976.59
2023-02-27T02:20:31.488Z,101977.75
2023-02-27T02:23:00.911Z,101972.34
2023-02-27T02:25:45.359Z,101979.66
2023-02-27T02:28:26.850Z,101973.53
2023-02-27T02:31:09.319Z,101977.19
2023-02-27T02:33:54.025Z,101971.91
2023-02-27T02:37:14.494Z,101986.53
2023-02-27T02:39:59.517Z,101986.72
2023-02-27T02:42:31.951Z,101980.50
2023-02-27T02:45:10.238Z,101985.88
2023-02-27T02:47:45.152Z,101985.09
2023-02-27T02:50:14.461Z,101988.75
2023-02-27T02:52:53.775Z,101981.44
2023-02-27T02:55:27.564Z,101984.34
2023-02-27T02:58:21.804Z,101992.63
2023-02-27T03:01:20.302Z,101994.63
2023-02-27T03:04:12.529Z,101996.78
2023-02-27T03:06:46.151Z,101997.84
2023-02-27T03:09:20.716Z,102007.84
2023-02-27T03:11:50.399Z,101994.56
2023-02-27T03:14:30.961Z,102010.72
2023-02-27T03:17:04.075Z,102008.03
2023-02-27T03:20:12.260Z,101998.44
2023-02-27T03:22:43.198Z,102007.56
2023-02-27T03:25:12.769Z,101997.84
2023-02-27T03:27:46.112Z,101998.81
2023-02-27T03:30:16.001Z,102002.47
2023-02-27T03:32:45.848Z,102000.75
2023-02-27T03:35:12.800Z,102007.88
2023-02-27T03:37:48.478Z,102014.13
2023-02-27T03:40:17.597Z,102010.44
2023-02-27T03:42:54.752Z,102019.50
2023-02-27T03:45:33.265Z,102013.25
2023-02-27T03:48:01.016Z,102019.59
2023-02-27T03:50:27.697Z,102009.78
2023-02-27T03:52:54.580Z,102020.53
2023-02-27T03:55:26.680Z,102018.84
2023-02-27T03:57:53.721Z,102024.22
2023-02-27T04:00:23.554Z,102019.69
2023-02-27T04:02:52.541Z,102018.84
2023-02-27T04:05:20.497Z,102018.03
2023-02-27T04:08:32.127Z,102012.09
2023-02-27T04:11:29.668Z,102019.59
2023-02-27T04:14:12.386Z,102021.53
2023-02-27T04:16:57.403Z,102027.09
2023-02-27T04:19:48.088Z,102036.13
2023-02-27T04:22:29.480Z,102032.66
2023-02-27T04:25:05.086Z,102025.53
2023-02-27T04:27:45.305Z,102035.34
2023-02-27T04:30:38.973Z,102036.31
2023-02-27T04:33:24.440Z,102032.84
2023-02-27T04:35:56.679Z,102038.25
2023-02-27T04:38:29.698Z,102043.81
2023-02-27T04:41:01.950Z,102049.19
2023-02-27T04:43:30.266Z,102050.16
2023-02-27T04:46:00.624Z,102046.59
2023-02-27T04:48:36.104Z,102051.03
2023-02-27T04:51:11.440Z,102047.47
2023-02-27T04:53:41.571Z,102050.34
2023-02-27T04:56:13.055Z,102059.38
2023-02-27T04:58:50.408Z,102056.78
2023-02-27T05:01:23.867Z,102061.38
2023-02-27T05:03:54.307Z,102067.72
2023-02-27T05:06:27.064Z,102066.75
2023-02-27T05:09:08.996Z,102065.13
2023-02-27T05:11:47.934Z,102069.72
2023-02-27T05:14:21.780Z,102068.97
2023-02-27T05:16:56.610Z,102069.91
2023-02-27T05:19:23.220Z,102083.38
2023-02-27T05:22:00.918Z,102080.69
2023-02-27T05:24:43.626Z,102079.81
2023-02-27T05:27:47.037Z,102084.31
2023-02-27T05:30:34.911Z,102080.88
2023-02-27T05:33:16.737Z,102082.63
2023-02-27T05:35:53.184Z,102095.09
2023-02-27T05:38:27.406Z,102089.72
2023-02-27T05:41:23.095Z,102097.03
2023-02-27T05:44:08.300Z,102093.47
2023-02-27T05:46:39.062Z,102092.50
2023-02-27T05:49:15.856Z,102098.84
2023-02-27T05:51:46.253Z,102089.91
2023-02-27T05:54:35.690Z,102091.63
2023-02-27T05:57:04.836Z,102099.50
2023-02-27T05:59:39.168Z,102094.81
2023-02-27T06:02:06.254Z,102092.03
2023-02-27T06:04:32.869Z,102093.69
2023-02-27T06:06:59.459Z,102090.03
2023-02-27T06:09:26.034Z,102092.63
2023-02-27T06:11:52.377Z,102096.19
2023-02-27T06:14:18.765Z,102085.34
2023-02-27T06:16:45.246Z,102090.72
2023-02-27T06:19:11.629Z,102090.72
2023-02-27T06:21:38.039Z,102097.03
2023-02-27T06:24:04.539Z,102102.44
2023-02-27T06:26:30.921Z,102095.31
2023-02-27T06:28:57.322Z,102114.13
2023-02-27T06:31:23.727Z,102113.31
2023-02-27T06:33:50.347Z,102113.31
2023-02-27T06:36:16.808Z,102110.50
2023-02-27T06:38:43.315Z,102114.94
2023-02-27T06:41:09.891Z,102120.22
2023-02-27T06:43:37.079Z,102126.44
2023-02-27T06:46:03.659Z,102125.63
2023-02-27T06:48:30.160Z,102124.75
2023-02-27T06:50:57.023Z,102120.22
2023-02-27T06:53:24.578Z,102123.75
2023-02-27T06:55:51.585Z,102120.13
2023-02-27T06:58:18.160Z,102127.31
2023-02-27T07:00:45.955Z,102124.56
2023-02-27T07:03:13.379Z,102137.06
2023-02-27T07:05:41.756Z,102138.75
2023-02-27T07:08:09.021Z,102133.31
2023-02-27T07:10:35.418Z,102137.75
2023-02-27T07:13:02.872Z,102142.94
2023-02-27T07:15:29.324Z,102144.56
2023-02-27T07:17:55.761Z,102146.19
2023-02-27T07:20:22.192Z,102154.00
2023-02-27T07:22:48.626Z,102146.72
2023-02-27T07:25:15.043Z,102149.00
2023-02-27T07:27:41.460Z,102148.81
2023-02-27T07:30:09.986Z,102158.16
2023-02-27T07:32:36.417Z,102161.41
2023-02-27T07:35:03.947Z,102157.50
2023-02-27T07:37:30.372Z,102160.59
2023-02-27T07:39:56.818Z,102168.28
2023-02-27T07:42:23.281Z,102164.16
2023-02-27T07:44:49.700Z,102160.88
2023-02-27T07:47:17.693Z,102164.81
2023-02-27T07:49:44.427Z,102158.94
2023-02-27T07:52:11.288Z,102159.19
2023-02-27T07:54:38.026Z,102154.19
2023-02-27T07:57:05.144Z,102157.16
2023-02-27T07:59:31.684Z,102152.78
2023-02-27T08:01:58.216Z,102153.94
2023-02-27T08:04:24.634Z,102147.81
2023-02-27T08:06:51.085Z,102159.72
2023-02-27T08:09:17.728Z,102156.28
2023-02-27T08:11:44.161Z,102158.91
2023-02-27T08:14:10.731Z,102160.91
2023-02-27T08:16:37.515Z,102159.19
2023-02-27T08:19:04.069Z,102159.31
2023-02-27T08:21:30.974Z,102153.19
2023-02-27T08:23:57.552Z,102149.84
2023-02-27T08:26:24.003Z,102156.31
2023-02-27T08:28:50.952Z,102152.09
2023-02-27T08:31:17.417Z,102151.34
2023-02-27T08:33:43.943Z,102150.56
2023-02-27T08:36:10.534Z,102158.03
2023-02-27T08:38:37.090Z,102149.25
2023-02-27T08:41:04.121Z,102154.00
2023-02-27T08:43:30.639Z,102151.59
2023-02-27T08:45:57.499Z,102150.03
2023-02-27T08:48:24.874Z,102145.78
2023-02-27T08:50:51.795Z,102145.22
2023-02-27T08:53:18.503Z,102151.03
2023-02-27T08:55:49.102Z,102144.31
2023-02-27T08:58:17.055Z,102143.00
2023-02-27T09:00:44.357Z,102146.00
2023-02-27T09:03:11.333Z,102143.56
2023-02-27T09:05:38.621Z,102137.69
2023-02-27T09:08:05.614Z,102127.38
2023-02-27T09:10:33.045Z,102130.22
2023-02-27T09:13:00.155Z,102133.97
2023-02-27T09:15:27.818Z,102128.69
2023-02-27T09:17:56.476Z,102123.16
2023-02-27T09:20:23.061Z,102122.09
2023-02-27T09:22:49.596Z,102126.56
2023-02-27T09:25:16.070Z,102133.69
2023-02-27T09:27:42.490Z,102130.88
2023-02-27T09:30:09.651Z,102125.56
2023-02-27T09:32:36.127Z,102125.56
2023-02-27T09:35:02.587Z,102126.31
2023-02-27T09:37:28.991Z,102128.25
2023-02-27T09:39:55.361Z,102133.53
2023-02-27T09:42:25.946Z,102137.09
2023-02-27T09:44:55.518Z,102130.41
2023-02-27T09:47:37.137Z,102127.66
2023-02-27T09:50:20.726Z,102130.66
2023-02-27T09:52:47.253Z,102126.75
2023-02-27T09:55:22.150Z,102124.56
2023-02-27T09:58:06.676Z,102133.13
2023-02-27T10:00:51.175Z,102127.94
2023-02-27T10:03:30.459Z,102131.06
2023-02-27T10:06:25.692Z,102128.41
2023-02-27T10:09:07.088Z,102133.66
2023-02-27T10:12:02.866Z,102127.00
2023-02-27T10:14:47.426Z,102127.94
2023-02-27T10:17:22.505Z,102125.78
2023-02-27T10:19:51.240Z,102119.72
2023-02-27T10:22:41.092Z,102121.06
2023-02-27T10:25:30.790Z,102114.72
2023-02-27T10:28:08.767Z,102121.13
2023-02-27T10:30:35.422Z,102112.13
2023-02-27T10:33:18.837Z,102107.81
2023-02-27T10:35:45.700Z,102105.63
2023-02-27T10:38:17.863Z,102121.38
2023-02-27T10:40:46.143Z,102109.38
2023-02-27T10:43:16.396Z,102105.41
2023-02-27T10:45:43.895Z,102102.75
2023-02-27T10:48:11.212Z,102108.41
2023-02-27T10:50:41.545Z,102098.88
2023-02-27T10:53:21.898Z,102093.31
2023-02-27T10:56:01.463Z,102084.22
2023-02-27T10:58:34.676Z,102080.53
2023-02-27T11:01:04.774Z,102071.78
2023-02-27T11:03:41.509Z,102065.44
2023-02-27T11:06:24.676Z,102060.09
2023-02-27T11:09:19.191Z,102050.13
2023-02-27T11:11:45.712Z,102046.66
2023-02-27T11:14:30.694Z,102046.31
2023-02-27T11:17:03.274Z,102049.56
2023-02-27T11:19:38.138Z,102039.41
2023-02-27T11:22:15.656Z,102038.69
2023-02-27T11:24:42.220Z,102019.09
2023-02-27T11:27:22.987Z,102026.44
2023-02-27T11:30:27.239Z,102032.75
2023-02-27T11:32:56.563Z,102026.31
2023-02-27T11:35:41.207Z,102013.84
2023-02-27T11:38:18.220Z,102010.81
2023-02-27T11:40:51.215Z,101995.94
2023-02-27T11:43:21.612Z,102003.94
2023-02-27T11:46:04.168Z,101994.47
2023-02-27T11:48:34.779Z,101989.66
2023-02-27T11:51:10.294Z,101986.28
2023-02-27T11:53:48.839Z,101986.78
2023-02-27T11:56:21.235Z,101985.63
2023-02-27T11:59:03.956Z,101983.94
2023-02-27T12:01:43.382Z,101983.94
2023-02-27T12:04:17.717Z,101975.19
2023-02-27T12:07:06.009Z,101976.88
2023-02-27T12:10:05.922Z,101976.88
2023-02-27T12:12:41.360Z,101960.59
2023-02-27T12:15:19.718Z,101948.47
2023-02-27T12:17:53.580Z,101951.97
2023-02-27T12:20:55.535Z,101957.63
2023-02-27T12:23:46.255Z,101952.28
2023-02-27T12:26:18.403Z,101950.31
2023-02-27T12:29:14.952Z,101939.84
2023-02-27T12:31:54.127Z,101942.69
2023-02-27T12:34:29.314Z,101936.88
2023-02-27T12:37:02.971Z,101935.59
2023-02-27T12:39:30.600Z,101936.22
2023-02-27T12:42:19.057Z,101933.34
2023-02-27T12:45:04.322Z,101931.31
2023-02-27T12:47:41.848Z,101933.94
2023-02-27T12:50:19.344Z,101924.53
2023-02-27T12:52:54.523Z,101912.09
2023-02-27T12:55:26.002Z,101914.25
2023-02-27T12:57:55.299Z,101921.25
2023-02-27T13:00:28.479Z,101908.53
2023-02-27T13:03:16.558Z,101914.47
2023-02-27T13:05:56.491Z,101910.44
2023-02-27T13:08:54.038Z,101903.19
2023-02-27T13:11:30.834Z,101897.66
2023-02-27T13:14:01.865Z,101900.44
2023-02-27T13:16:55.673Z,101895.81
2023-02-27T13:19:32.172Z,101895.59
2023-02-27T13:22:13.354Z,101892.22
2023-02-27T13:24:49.157Z,101888.34
2023-02-27T13:27:26.453Z,101890.69
2023-02-27T13:30:02.809Z,101887.47
2023-02-27T13:32:43.999Z,101882.66
2023-02-27T13:35:23.922Z,101896.75
2023-02-27T13:37:51.646Z,101887.56
2023-02-27T13:40:39.021Z,101894.81
2023-02-27T13:43:29.406Z,101898.78
2023-02-27T13:46:01.496Z,101895.91
2023-02-27T13:48:33.644Z,101901.84
2023-02-27T13:51:01.148Z,101900.38
2023-02-27T13:53:28.587Z,101900.22
2023-02-27T13:56:23.712Z,101892.69
2023-02-27T13:58:51.343Z,101902.38
2023-02-27T14:01:24.212Z,101911.72
2023-02-27T14:04:02.865Z,101906.88
2023-02-27T14:06:29.803Z,101895.88
2023-02-27T14:09:12.553Z,101922.31
2023-02-27T14:11:40.945Z,101915.56
2023-02-27T14:14:09.941Z,101910.84
2023-02-27T14:16:39.987Z,101904.84
2023-02-27T14:19:15.655Z,101914.00
2023-02-27T14:21:51.328Z,101899.97
2023-02-27T14:24:20.740Z,101910.84
2023-02-27T14:26:47.591Z,101910.88
2023-02-27T14:29:20.959Z,101924.78
2023-02-27T14:31:48.536Z,101924.38
2023-02-27T14:34:17.677Z,101934.53
2023-02-27T14:36:50.040Z,101922.72
2023-02-27T14:39:29.641Z,101927.56
2023-02-27T14:42:22.444Z,101924.22
2023-02-27T14:44:51.409Z,101924.00
2023-02-27T14:47:19.586Z,101927.44
2023-02-27T14:49:47.616Z,101924.13
2023-02-27T14:52:24.546Z,101924.84
2023-02-27T14:54:52.198Z,101917.81
2023-02-27T14:57:22.011Z,101912.66
2023-02-27T14:59:51.519Z,101914.75
2023-02-27T15:02:34.725Z,101909.38
2023-02-27T15:05:01.053Z,101925.75
2023-02-27T15:07:31.480Z,101930.00
2023-02-27T15:10:01.655Z,101933.00
2023-02-27T15:12:30.749Z,101937.75
2023-02-27T15:14:59.883Z,101933.34
2023-02-27T15:17:46.097Z,101938.22
2023-02-27T15:20:31.798Z,101942.94
2023-02-27T15:23:00.232Z,101941.31
2023-02-27T15:25:38.515Z,101938.72
2023-02-27T15:28:23.290Z,101952.75
2023-02-27T15:30:51.212Z,101942.75
2023-02-27T15:33:18.738Z,101940.69
2023-02-27T15:35:46.098Z,101943.16
2023-02-27T15:38:31.510Z,101945.03
2023-02-27T15:40:59.506Z,101946.38
2023-02-27T15:43:27.852Z,101940.00
2023-02-27T15:45:55.230Z,101942.28
2023-02-27T15:48:22.377Z,101945.72
2023-02-27T15:50:53.716Z,101939.16
2023-02-27T15:53:24.119Z,101940.03
2023-02-27T15:55:53.742Z,101935.66
2023-02-27T15:58:28.402Z,101935.19
2023-02-27T16:01:01.724Z,101936.63
2023-02-27T16:03:33.139Z,101941.88
2023-02-27T16:06:00.641Z,101942.84
2023-02-27T16:08:30.291Z,101955.16
2023-02-27T16:10:57.661Z,101950.66
2023-02-27T16:13:34.898Z,101955.66
2023-02-27T16:16:04.899Z,101969.97
2023-02-27T16:18:38.566Z,101966.03
2023-02-27T16:21:12.916Z,101968.50
2023-02-27T16:23:39.907Z,101964.97
2023-02-27T16:26:21.519Z,101983.16
2023-02-27T16:28:52.649Z,101988.47
2023-02-27T16:31:24.862Z,101985.97
2023-02-27T16:33:52.885Z,101982.81
2023-02-27T16:36:21.985Z,101991.44
2023-02-27T16:38:48.959Z,101987.03
2023-02-27T16:41:17.253Z,101994.59
2023-02-27T16:43:46.219Z,101995.63
2023-02-27T16:46:19.803Z,101998.16
2023-02-27T16:48:50.043Z,101996.59
2023-02-27T16:51:19.294Z,102011.66
2023-02-27T16:53:49.400Z,102013.69
2023-02-27T16:56:18.141Z,102009.88
2023-02-27T16:58:46.884Z,102011.75
2023-02-27T17:01:16.271Z,102019.06
2023-02-27T17:03:44.143Z,102021.78
2023-02-27T17:06:12.292Z,102023.06
2023-02-27T17:08:40.805Z,102029.22
2023-02-27T17:11:08.429Z,102030.22
2023-02-27T17:13:36.441Z,102032.72
2023-02-27T17:16:04.053Z,102036.78
2023-02-27T17:18:30.508Z,102040.31
2023-02-27T17:21:00.522Z,102042.25
2023-02-27T17:23:27.155Z,102050.25
2023-02-27T17:25:54.270Z,102042.38
2023-02-27T17:28:22.279Z,102046.31
2023-02-27T17:30:50.310Z,102046.59
2023-02-27T17:33:17.372Z,102055.44
2023-02-27T17:35:43.864Z,102055.09
2023-02-27T17:38:10.283Z,102058.28
2023-02-27T17:40:39.192Z,102067.97
2023-02-27T17:43:05.801Z,102065.00
2023-02-27T17:45:32.502Z,102071.25
2023-02-27T17:47:59.012Z,102074.94
2023-02-27T17:50:25.518Z,102069.38
2023-02-27T17:52:51.956Z,102081.53
2023-02-27T17:55:18.945Z,102085.31
2023-02-27T17:57:45.373Z,102089.25
2023-02-27T18:00:15.110Z,102089.47
2023-02-27T18:02:43.849Z,102094.97
2023-02-27T18:05:10.554Z,102098.59
2023-02-27T18:07:37.005Z,102099.22
2023-02-27T18:10:05.458Z,102096.34
2023-02-27T18:12:32.485Z,102096.09
2023-02-27T18:14:58.940Z,102105.72
2023-02-27T18:17:25.354Z,102106.19
2023-02-27T18:19:51.940Z,102104.47
2023-02-27T18:22:18.778Z,102100.47
2023-02-27T18:24:45.787Z,102102.47
2023-02-27T18:27:12.266Z,102103.81
2023-02-27T18:29:39.219Z,102111.44
2023-02-27T18:32:08.932Z,102100.66
2023-02-27T18:34:35.655Z,102105.53
2023-02-27T18:37:02.099Z,102109.56
2023-02-27T18:39:28.591Z,102108.25
2023-02-27T18:41:55.041Z,102104.38
2023-02-27T18:44:21.471Z,102104.28
2023-02-27T18:46:48.016Z,102109.41
2023-02-27T18:49:15.682Z,102105.56
2023-02-27T18:51:42.653Z,102114.44
2023-02-27T18:54:13.143Z,102111.44
2023-02-27T18:56:40.169Z,102109.41
2023-02-27T18:59:07.183Z,102112.84
2023-02-27T19:01:37.099Z,102111.97
2023-02-27T19:04:06.459Z,102117.44
2023-02-27T19:06:36.031Z,102119.41
2023-02-27T19:09:07.312Z,102114.78
2023-02-27T19:11:34.559Z,102122.63
2023-02-27T19:14:02.906Z,102118.00
2023-02-27T19:16:30.281Z,102117.97
2023-02-27T19:18:58.485Z,102121.50
2023-02-27T19:21:25.489Z,102122.06
2023-02-27T19:23:51.942Z,102119.91
2023-02-27T19:26:19.507Z,102119.44
2023-02-27T19:28:46.100Z,102119.97
2023-02-27T19:31:14.181Z,102118.53
2023-02-27T19:33:41.386Z,102113.34
2023-02-27T19:36:14.010Z,102117.34
2023-02-27T19:38:40.451Z,102122.03
2023-02-27T19:41:10.009Z,102119.31
2023-02-27T19:43:38.892Z,102119.31
2023-02-27T19:46:07.584Z,102122.78
2023-02-27T19:48:34.551Z,102124.47
2023-02-27T19:51:10.275Z,102128.94
2023-02-27T19:53:37.948Z,102117.34
2023-02-27T19:56:10.677Z,102124.63
2023-02-27T19:58:37.390Z,102128.75
2023-02-27T20:01:06.658Z,102129.88
2023-02-27T20:03:33.601Z,102132.00
2023-02-27T20:06:00.134Z,102130.53
2023-02-27T20:08:26.562Z,102138.97
2023-02-27T20:10:57.770Z,102133.06
2023-02-27T20:13:24.997Z,102148.06
2023-02-27T20:16:12.131Z,102145.72
2023-02-27T20:18:40.757Z,102141.53
2023-02-27T20:21:14.901Z,102139.09
2023-02-27T20:23:43.731Z,102140.22
2023-02-27T20:26:20.457Z,102138.50
2023-02-27T20:28:47.937Z,102139.63
2023-02-27T20:31:16.141Z,102144.91
2023-02-27T20:33:43.072Z,102146.75
2023-02-27T20:36:11.686Z,102151.09
2023-02-27T20:38:39.284Z,102144.53
2023-02-27T20:41:07.503Z,102143.53
2023-02-27T20:43:34.415Z,102144.25
2023-02-27T20:46:10.279Z,102141.28
2023-02-27T20:48:36.803Z,102141.28
2023-02-27T20:51:11.400Z,102136.59
2023-02-27T20:53:40.497Z,102137.56
2023-02-27T20:56:08.191Z,102139.41
2023-02-27T20:58:34.921Z,102144.13
2023-02-27T21:01:04.307Z,102135.13
2023-02-27T21:03:38.499Z,102132.41
2023-02-27T21:06:07.750Z,102129.69
2023-02-27T21:08:39.070Z,102127.94
2023-02-27T21:11:10.180Z,102135.22
2023-02-27T21:13:37.329Z,102134.38
2023-02-27T21:16:06.028Z,102134.38
2023-02-27T21:18:32.853Z,102137.94
2023-02-27T21:21:28.125Z,102130.53
2023-02-27T21:23:55.305Z,102136.84
2023-02-27T21:26:26.481Z,102132.72
2023-02-27T21:28:58.585Z,102131.47
2023-02-27T21:31:27.290Z,102129.34
2023-02-27T21:33:54.415Z,102132.53
2023-02-27T21:36:35.301Z,102135.09
2023-02-27T21:39:07.260Z,102130.16
2023-02-27T21:41:34.766Z,102128.75
2023-02-27T21:44:03.320Z,102131.94
2023-02-27T21:46:30.852Z,102129.31
2023-02-27T21:48:57.714Z,102126.38
2023-02-27T21:51:38.806Z,102124.25
2023-02-27T21:54:07.287Z,102123.97
2023-02-27T21:56:33.843Z,102122.81
2023-02-27T21:59:01.857Z,102122.53
2023-02-27T22:01:28.905Z,102123.28
2023-02-27T22:03:55.771Z,102117.97
2023-02-27T22:06:23.974Z,102122.69
2023-02-27T22:08:57.659Z,102127.28
2023-02-27T22:11:26.138Z,102123.69
2023-02-27T22:13:53.105Z,102125.69
2023-02-27T22:16:21.247Z,102126.97
2023-02-27T22:18:48.375Z,102122.19
2023-02-27T22:21:18.649Z,102117.53
2023-02-27T22:23:46.487Z,102121.06
2023-02-27T22:26:15.274Z,102122.84
2023-02-27T22:28:41.982Z,102138.50
2023-02-27T22:31:13.918Z,102133.97
2023-02-27T22:33:42.351Z,102132.03
2023-02-27T22:36:11.906Z,102142.44
2023-02-27T22:38:38.563Z,102132.06
2023-02-27T22:41:11.134Z,102140.47
2023-02-27T22:43:39.690Z,102143.56
2023-02-27T22:46:07.729Z,102137.53
2023-02-27T22:48:34.603Z,102149.53
2023-02-27T22:51:05.220Z,102147.44
2023-02-27T22:53:38.332Z,102137.94
2023-02-27T22:56:07.293Z,102141.94
2023-02-27T22:58:37.145Z,102145.00
2023-02-27T23:01:15.152Z,102151.78
2023-02-27T23:03:43.308Z,102139.59
2023-02-27T23:06:13.104Z,102144.28
2023-02-27T23:08:39.962Z,102157.13
2023-02-27T23:11:06.838Z,102149.97
2023-02-27T23:13:33.666Z,102148.22
2023-02-27T23:16:01.556Z,102153.66
2023-02-27T23:18:28.484Z,102154.66
2023-02-27T23:20:54.922Z,102148.50
2023-02-27T23:23:21.470Z,102162.06
2023-02-27T23:25:48.003Z,102156.88
2023-02-27T23:28:14.448Z,102155.16
2023-02-27T23:30:40.846Z,102156.38
2023-02-27T23:33:07.281Z,102164.78
2023-02-27T23:35:33.718Z,102168.88
2023-02-27T23:38:00.730Z,102167.25
2023-02-27T23:40:27.519Z,102172.91
2023-02-27T23:43:12.845Z,102177.72
2023-02-27T23:45:39.516Z,102170.97
2023-02-27T23:48:06.585Z,102167.50
2023-02-27T23:50:39.217Z,102169.47
2023-02-27T23:53:06.835Z,102169.72
2023-02-27T23:55:35.478Z,102164.56
2023-02-27T23:58:06.776Z,102165.63
